Fujairah, United Arab Emirates
Current Conditions -  °F | °C
As of 9:00 AM on Saturday 20 Dec 2014 (Local Time) from OMFJ Reporting Station
Clear Clear  
Wind Chill: 73°   Ceiling: Unl
Heat Index: 73°   Visibility: 4mi
Dew Point: 57°   Wind: 7mph
Humidity: 57%   Direction: 290°WNW
Pressure: 30.15"   Gusts: NA
Location:  25.34°N, 56.17°E
Report Text: OMFJ 200500Z 29006KT 7000 NSC 23/14 Q1021 A3017
Loading
Personal Weather Stations






























Interactive Weather Map New forecast layout! Learn more

10-Day Weather Forecast

Advertisements
Track Severe Weather on mobile